createdAt,value
2018-09-17T00:00:38.421Z,99176.49
2018-09-17T00:05:31.507Z,99173.34
2018-09-17T00:10:24.510Z,99166.42
2018-09-17T00:15:17.662Z,99174.95
2018-09-17T00:20:11.102Z,99178.19
2018-09-17T00:25:04.318Z,99175.25
2018-09-17T00:29:57.398Z,99182.31
2018-09-17T00:34:50.390Z,99179.36
2018-09-17T00:39:43.403Z,99182.46
2018-09-17T00:44:36.482Z,99179.23
2018-09-17T00:49:29.443Z,99170.27
2018-09-17T00:54:22.554Z,99173.59
2018-09-17T00:59:15.900Z,99174.90
2018-09-17T01:04:09.419Z,99178.08
2018-09-17T01:09:02.377Z,99174.11
2018-09-17T01:13:56.013Z,99175.43
2018-09-17T01:18:49.153Z,99174.39
2018-09-17T01:23:42.179Z,99181.85
2018-09-17T01:28:35.165Z,99185.27
2018-09-17T01:33:28.811Z,99183.60
2018-09-17T01:38:21.918Z,99171.05
2018-09-17T01:43:15.165Z,99173.06
2018-09-17T01:48:09.339Z,99177.08
2018-09-17T01:53:02.396Z,99169.84
2018-09-17T01:57:55.545Z,99166.14
2018-09-17T02:02:48.667Z,99166.09
2018-09-17T02:07:41.784Z,99167.11
2018-09-17T02:12:35.282Z,99167.91
2018-09-17T02:17:28.920Z,99168.98
2018-09-17T02:22:21.999Z,99169.21
2018-09-17T02:27:15.203Z,99176.89
2018-09-17T02:32:08.239Z,99171.48
2018-09-17T02:37:01.263Z,99166.84
2018-09-17T02:41:54.613Z,99164.71
2018-09-17T02:46:47.601Z,99152.66
2018-09-17T02:51:40.658Z,99162.69
2018-09-17T02:56:33.790Z,99161.20
2018-09-17T03:01:26.849Z,99154.12
2018-09-17T03:06:20.855Z,99162.14
2018-09-17T03:11:14.058Z,99164.17
2018-09-17T03:16:07.127Z,99168.86
2018-09-17T03:21:01.058Z,99161.49
2018-09-17T03:25:54.174Z,99174.80
2018-09-17T03:30:47.268Z,99175.58
2018-09-17T03:35:43.682Z,99173.96
2018-09-17T03:40:37.063Z,99177.81
2018-09-17T03:45:30.013Z,99174.80
2018-09-17T03:50:23.074Z,99179.97
2018-09-17T03:55:16.190Z,99189.87
2018-09-17T04:00:09.174Z,99193.52
2018-09-17T04:05:03.650Z,99207.39
2018-09-17T04:09:56.812Z,99208.10
2018-09-17T04:14:49.970Z,99213.23
2018-09-17T04:19:43.368Z,99218.63
2018-09-17T04:24:36.434Z,99216.69
2018-09-17T04:29:30.054Z,99221.32
2018-09-17T04:34:23.103Z,99217.42
2018-09-17T04:39:18.189Z,99223.34
2018-09-17T04:44:11.298Z,99233.34
2018-09-17T04:49:04.398Z,99236.39
2018-09-17T04:53:57.364Z,99235.13
2018-09-17T04:58:51.418Z,99235.89
2018-09-17T05:03:44.502Z,99232.27
2018-09-17T05:08:37.648Z,99238.33
2018-09-17T05:13:31.048Z,99248.05
2018-09-17T05:18:26.138Z,99247.97
2018-09-17T05:23:19.250Z,99246.95
2018-09-17T05:28:12.455Z,99250.08
2018-09-17T05:33:05.501Z,99247.75
2018-09-17T05:37:58.636Z,99248.27
2018-09-17T05:42:51.712Z,99250.84
2018-09-17T05:47:44.777Z,99257.55
2018-09-17T05:52:37.911Z,99255.80
2018-09-17T05:57:31.141Z,99253.21
2018-09-17T06:02:24.291Z,99263.61
2018-09-17T06:07:17.543Z,99268.98
2018-09-17T06:12:10.728Z,99271.17
2018-09-17T06:17:04.119Z,99276.00
2018-09-17T06:21:57.094Z,99264.30
2018-09-17T06:26:50.317Z,99265.37
2018-09-17T06:31:43.395Z,99263.42
2018-09-17T06:36:36.419Z,99265.46
2018-09-17T06:41:30.219Z,99268.52
2018-09-17T06:46:24.485Z,99269.56
2018-09-17T06:51:17.997Z,99275.16
2018-09-17T06:56:11.400Z,99284.31
2018-09-17T07:01:04.530Z,99283.72
2018-09-17T07:05:57.496Z,99286.19
2018-09-17T07:10:50.971Z,99293.89
2018-09-17T07:15:44.184Z,99295.53
2018-09-17T07:20:37.731Z,99297.92
2018-09-17T07:25:31.408Z,99297.58
2018-09-17T07:30:24.932Z,99302.94
2018-09-17T07:35:18.467Z,99301.91
2018-09-17T07:40:11.567Z,99300.06
2018-09-17T07:45:08.417Z,99302.70
2018-09-17T07:50:01.465Z,99304.48
2018-09-17T07:54:54.566Z,99303.75
2018-09-17T07:59:47.744Z,99304.56
2018-09-17T08:04:42.336Z,99313.98
2018-09-17T08:09:35.519Z,99305.67
2018-09-17T08:14:28.557Z,99306.97
2018-09-17T08:19:21.758Z,99301.73
2018-09-17T08:24:14.864Z,99294.14
2018-09-17T08:29:08.176Z,99292.09
2018-09-17T08:34:02.087Z,99290.33
2018-09-17T08:38:56.179Z,99293.89
2018-09-17T08:43:49.356Z,99289.98
2018-09-17T08:48:44.967Z,99287.73
2018-09-17T08:53:38.144Z,99285.24
2018-09-17T08:58:34.177Z,99284.48
2018-09-17T09:03:32.801Z,99282.11
2018-09-17T09:08:25.874Z,99282.98
2018-09-17T09:13:24.546Z,99269.97
2018-09-17T09:18:20.055Z,99268.02
2018-09-17T09:23:13.522Z,99273.53
2018-09-17T09:28:06.634Z,99268.80
2018-09-17T09:33:00.224Z,99264.91
2018-09-17T09:37:53.463Z,99265.05
2018-09-17T09:42:46.535Z,99257.04
2018-09-17T09:47:39.723Z,99251.75
2018-09-17T09:52:32.833Z,99248.34
2018-09-17T09:57:25.959Z,99241.60
2018-09-17T10:02:24.519Z,99239.63
2018-09-17T10:07:18.493Z,99237.30
2018-09-17T10:12:16.841Z,99236.58
2018-09-17T10:17:15.353Z,99233.55
2018-09-17T10:22:08.476Z,99224.73
2018-09-17T10:27:01.564Z,99222.27
2018-09-17T10:31:54.590Z,99224.27
2018-09-17T10:36:47.693Z,99222.87
2018-09-17T10:41:41.314Z,99222.20
2018-09-17T10:46:34.719Z,99221.23
2018-09-17T10:51:28.827Z,99211.66
2018-09-17T10:56:21.861Z,99205.05
2018-09-17T11:01:15.886Z,99206.17
2018-09-17T11:06:09.078Z,99210.61
2018-09-17T11:11:02.529Z,99200.33
2018-09-17T11:15:55.706Z,99197.26
2018-09-17T11:20:49.600Z,99188.72
2018-09-17T11:25:42.759Z,99189.89
2018-09-17T11:30:36.220Z,99182.81
2018-09-17T11:35:29.286Z,99177.77
2018-09-17T11:40:22.713Z,99183.95
2018-09-17T11:45:15.752Z,99180.59
2018-09-17T11:50:08.926Z,99169.64
2018-09-17T11:55:02.271Z,99163.25
2018-09-17T11:59:55.740Z,99163.37
2018-09-17T12:04:54.627Z,99158.75
2018-09-17T12:09:47.775Z,99143.76
2018-09-17T12:14:43.567Z,99134.09
2018-09-17T12:19:36.655Z,99136.45
2018-09-17T12:24:29.726Z,99122.41
2018-09-17T12:29:22.953Z,99114.38
2018-09-17T12:34:16.066Z,99103.64
2018-09-17T12:39:10.256Z,99105.72
2018-09-17T12:44:03.591Z,99099.23
2018-09-17T12:48:56.736Z,99091.48
2018-09-17T12:53:50.002Z,99093.03
2018-09-17T12:58:43.150Z,99087.28
2018-09-17T13:03:36.197Z,99095.34
2018-09-17T13:08:29.396Z,99086.14
2018-09-17T13:13:22.777Z,99080.55
2018-09-17T13:18:15.970Z,99083.14
2018-09-17T13:23:09.219Z,99080.12
2018-09-17T13:28:02.435Z,99076.81
2018-09-17T13:32:55.863Z,99069.77
2018-09-17T13:37:48.895Z,99065.39
2018-09-17T13:42:42.045Z,99060.02
2018-09-17T13:47:35.318Z,99061.28
2018-09-17T13:52:28.555Z,99054.38
2018-09-17T13:57:22.019Z,99050.40
2018-09-17T14:02:15.250Z,99051.34
2018-09-17T14:07:08.728Z,99048.33
2018-09-17T14:12:02.153Z,99047.80
2018-09-17T14:16:55.347Z,99044.91
2018-09-17T14:21:48.860Z,99048.91
2018-09-17T14:26:41.996Z,99041.41
2018-09-17T14:31:41.447Z,99034.58
2018-09-17T14:36:34.770Z,99025.74
2018-09-17T14:41:28.121Z,99025.67
2018-09-17T14:46:21.878Z,99025.26
2018-09-17T14:51:15.569Z,99025.91
2018-09-17T14:56:08.696Z,99023.08
2018-09-17T15:01:02.292Z,99019.23
2018-09-17T15:05:56.879Z,99027.06
2018-09-17T15:10:50.126Z,99018.02
2018-09-17T15:15:50.743Z,99014.81
2018-09-17T15:20:46.506Z,99027.79
2018-09-17T15:25:40.043Z,99034.30
2018-09-17T15:30:33.580Z,99035.70
2018-09-17T15:35:29.427Z,99043.38
2018-09-17T15:40:22.630Z,99053.92
2018-09-17T15:45:17.072Z,99053.99
2018-09-17T15:50:12.728Z,99063.19
2018-09-17T15:55:11.954Z,99071.52
2018-09-17T16:00:06.578Z,99068.25
2018-09-17T16:05:00.956Z,99080.91
2018-09-17T16:09:55.380Z,99071.13
2018-09-17T16:14:51.944Z,99072.95
2018-09-17T16:19:46.819Z,99073.69
2018-09-17T16:24:40.490Z,99085.87
2018-09-17T16:29:34.258Z,99091.71
2018-09-17T16:34:29.869Z,99092.19
2018-09-17T16:39:23.574Z,99101.20
2018-09-17T16:44:18.024Z,99115.34
2018-09-17T16:49:14.665Z,99132.22
2018-09-17T16:54:08.184Z,99133.88
2018-09-17T16:59:02.708Z,99138.17
2018-09-17T17:04:00.914Z,99143.70
2018-09-17T17:08:57.848Z,99156.85
2018-09-17T17:13:50.991Z,99152.25
2018-09-17T17:18:44.474Z,99169.16
2018-09-17T17:23:37.631Z,99166.75
2018-09-17T17:28:30.926Z,99169.80
2018-09-17T17:33:24.186Z,99171.51
2018-09-17T17:38:21.329Z,99176.32
2018-09-17T17:43:15.187Z,99185.52
2018-09-17T17:48:09.312Z,99178.83
2018-09-17T17:53:02.567Z,99182.86
2018-09-17T17:57:56.279Z,99191.75
2018-09-17T18:02:49.633Z,99192.77
2018-09-17T18:07:43.667Z,99195.08
2018-09-17T18:12:37.757Z,99195.06
2018-09-17T18:17:31.918Z,99198.80
2018-09-17T18:22:25.405Z,99204.95
2018-09-17T18:27:18.580Z,99206.13
2018-09-17T18:32:12.410Z,99201.99
2018-09-17T18:37:06.165Z,99203.80
2018-09-17T18:42:00.076Z,99206.38
2018-09-17T18:46:53.391Z,99203.02
2018-09-17T18:51:47.853Z,99199.80
2018-09-17T18:56:42.509Z,99199.02
2018-09-17T19:01:36.740Z,99194.37
2018-09-17T19:06:31.104Z,99185.50
2018-09-17T19:11:25.554Z,99191.94
2018-09-17T19:16:23.994Z,99193.23
2018-09-17T19:21:17.335Z,99198.76
2018-09-17T19:26:10.784Z,99201.05
2018-09-17T19:31:04.795Z,99195.77
2018-09-17T19:35:59.303Z,99195.88
2018-09-17T19:40:52.717Z,99194.08
2018-09-17T19:45:53.073Z,99197.12
2018-09-17T19:50:51.993Z,99200.48
2018-09-17T19:55:45.876Z,99196.20
2018-09-17T20:00:40.230Z,99197.00
2018-09-17T20:05:39.891Z,99194.34
2018-09-17T20:10:33.879Z,99196.96
2018-09-17T20:15:27.340Z,99199.36
2018-09-17T20:20:20.653Z,99205.87
2018-09-17T20:25:15.524Z,99205.59
2018-09-17T20:30:08.948Z,99199.79
2018-09-17T20:35:02.508Z,99206.23
2018-09-17T20:39:57.842Z,99204.41
2018-09-17T20:44:52.857Z,99211.67
2018-09-17T20:49:47.176Z,99217.17
2018-09-17T20:54:40.242Z,99211.00
2018-09-17T20:59:34.941Z,99208.97
2018-09-17T21:04:28.211Z,99211.24
2018-09-17T21:09:22.140Z,99212.54
2018-09-17T21:14:16.152Z,99210.29
2018-09-17T21:19:10.603Z,99214.22
2018-09-17T21:24:04.144Z,99204.79
2018-09-17T21:28:59.582Z,99213.03
2018-09-17T21:33:53.451Z,99212.87
2018-09-17T21:38:48.856Z,99218.84
2018-09-17T21:43:43.077Z,99227.50
2018-09-17T21:48:36.706Z,99226.95
2018-09-17T21:53:33.036Z,99223.67
2018-09-17T21:58:30.770Z,99226.06
2018-09-17T22:03:24.527Z,99222.48
2018-09-17T22:08:18.038Z,99218.56
2018-09-17T22:13:11.259Z,99216.59
2018-09-17T22:18:04.405Z,99223.75
2018-09-17T22:22:57.494Z,99223.53
2018-09-17T22:27:50.491Z,99224.58
2018-09-17T22:32:43.502Z,99218.03
2018-09-17T22:37:36.615Z,99218.42
2018-09-17T22:42:30.036Z,99223.69
2018-09-17T22:47:23.113Z,99219.45
2018-09-17T22:52:16.126Z,99217.51
2018-09-17T22:57:09.270Z,99214.44
2018-09-17T23:02:02.344Z,99214.28
2018-09-17T23:06:55.311Z,99212.48
2018-09-17T23:11:48.505Z,99217.66
2018-09-17T23:16:41.619Z,99215.70
2018-09-17T23:21:34.808Z,99210.48
2018-09-17T23:26:28.054Z,99210.17
2018-09-17T23:31:21.565Z,99213.25
2018-09-17T23:36:14.773Z,99212.27
2018-09-17T23:41:07.943Z,99203.78
2018-09-17T23:46:01.190Z,99204.08
2018-09-17T23:50:54.371Z,99196.91
2018-09-17T23:55:47.418Z,99197.21
